Time;durP1;ratioP1;P1;durP2;ratioP2;P2;SDS_P1;SDS_P2;PMS_P1;PMS_P2;Temp;Humidity;BMP_temperature;BMP_pressure;BME280_temperature;BME280_humidity;BME280_pressure;Samples;Min_cycle;Max_cycle;Signal;HPM_P1;HPM_P2
2020/10/29 00:02:07;;;;;;;1.42;1.32;;;;;;;19.67;59.68;100146.90;;;;-61
2020/10/29 00:05:07;;;;;;;1.42;1.23;;;;;;;19.66;59.71;100138.14;;;;-59
2020/10/29 00:08:07;;;;;;;1.28;1.17;;;;;;;19.66;59.72;100131.14;;;;-61
2020/10/29 00:11:07;;;;;;;1.42;1.29;;;;;;;19.65;59.66;100131.29;;;;-59
2020/10/29 00:14:07;;;;;;;1.63;1.26;;;;;;;19.63;59.66;100124.89;;;;-59
2020/10/29 00:17:07;;;;;;;1.51;1.30;;;;;;;19.64;59.73;100122.36;;;;-60
2020/10/29 00:20:07;;;;;;;1.72;1.23;;;;;;;19.63;59.68;100116.84;;;;-61
2020/10/29 00:23:07;;;;;;;1.51;1.29;;;;;;;19.62;59.73;100115.12;;;;-60
2020/10/29 00:26:07;;;;;;;1.30;1.20;;;;;;;19.62;59.70;100118.94;;;;-60
2020/10/29 00:29:07;;;;;;;1.32;1.20;;;;;;;19.62;59.71;100117.65;;;;-61
2020/10/29 00:32:07;;;;;;;1.37;1.27;;;;;;;19.61;59.76;100121.39;;;;-59
2020/10/29 00:35:07;;;;;;;1.40;1.30;;;;;;;19.60;59.76;100118.94;;;;-60
2020/10/29 00:38:07;;;;;;;1.37;1.25;;;;;;;19.60;59.73;100121.22;;;;-61
2020/10/29 00:41:07;;;;;;;1.30;1.20;;;;;;;19.59;59.78;100120.17;;;;-60
2020/10/29 00:44:07;;;;;;;1.33;1.23;;;;;;;19.59;59.71;100129.84;;;;-61
2020/10/29 00:47:07;;;;;;;1.30;1.20;;;;;;;19.59;59.78;100115.70;;;;-60
2020/10/29 00:50:07;;;;;;;1.30;1.20;;;;;;;19.58;59.73;100111.13;;;;-65
2020/10/29 00:53:07;;;;;;;2.17;1.19;;;;;;;19.58;59.74;100118.36;;;;-65
2020/10/29 00:56:07;;;;;;;1.32;1.22;;;;;;;19.57;59.83;100116.27;;;;-59
2020/10/29 00:59:07;;;;;;;1.33;1.10;;;;;;;19.56;59.82;100124.05;;;;-60
2020/10/29 01:02:07;;;;;;;1.44;1.28;;;;;;;19.57;59.83;100118.20;;;;-60
2020/10/29 01:05:07;;;;;;;1.30;1.20;;;;;;;19.56;59.75;100110.56;;;;-60
2020/10/29 01:08:07;;;;;;;1.32;1.16;;;;;;;19.55;59.82;100117.08;;;;-61
2020/10/29 01:11:07;;;;;;;1.09;1.09;;;;;;;19.55;59.89;100124.96;;;;-59
2020/10/29 01:14:07;;;;;;;1.37;1.27;;;;;;;19.55;59.77;100127.46;;;;-61
2020/10/29 01:17:07;;;;;;;1.49;1.20;;;;;;;19.54;59.83;100133.66;;;;-60
2020/10/29 01:20:07;;;;;;;1.55;1.30;;;;;;;19.54;59.76;100143.89;;;;-59
2020/10/29 01:23:07;;;;;;;1.23;1.10;;;;;;;19.54;59.80;100146.33;;;;-59
2020/10/29 01:26:07;;;;;;;1.53;1.30;;;;;;;19.53;59.86;100154.46;;;;-59
2020/10/29 01:29:07;;;;;;;1.20;1.10;;;;;;;19.54;59.87;100161.04;;;;-60
2020/10/29 01:32:07;;;;;;;1.49;1.11;;;;;;;19.52;59.87;100159.23;;;;-59
2020/10/29 01:35:07;;;;;;;1.29;1.19;;;;;;;19.52;59.84;100152.58;;;;-65
2020/10/29 01:38:07;;;;;;;1.07;1.07;;;;;;;19.51;59.86;100155.19;;;;-67
2020/10/29 01:41:07;;;;;;;1.38;1.28;;;;;;;19.51;59.93;100149.08;;;;-61
2020/10/29 01:44:07;;;;;;;1.07;1.05;;;;;;;19.51;59.88;100141.92;;;;-60
2020/10/29 01:47:07;;;;;;;1.19;1.10;;;;;;;19.51;59.84;100144.80;;;;-61
2020/10/29 01:50:07;;;;;;;1.33;1.23;;;;;;;19.49;59.93;100139.02;;;;-66
2020/10/29 01:53:07;;;;;;;1.33;1.23;;;;;;;19.49;59.87;100144.55;;;;-67
2020/10/29 01:56:07;;;;;;;1.35;1.20;;;;;;;19.49;59.89;100140.41;;;;-67
2020/10/29 01:59:07;;;;;;;1.30;1.20;;;;;;;19.48;59.96;100145.59;;;;-64
2020/10/29 02:02:07;;;;;;;1.45;1.20;;;;;;;19.47;59.87;100146.00;;;;-65
2020/10/29 02:05:07;;;;;;;1.30;1.20;;;;;;;19.47;60.00;100142.91;;;;-68
2020/10/29 02:08:07;;;;;;;1.42;1.29;;;;;;;19.47;59.93;100135.77;;;;-67
2020/10/29 02:11:07;;;;;;;1.19;1.10;;;;;;;19.47;59.87;100146.97;;;;-65
2020/10/29 02:14:07;;;;;;;1.30;1.20;;;;;;;19.47;60.00;100151.78;;;;-65
2020/10/29 02:17:07;;;;;;;1.28;1.13;;;;;;;19.47;59.95;100145.84;;;;-65
2020/10/29 02:20:07;;;;;;;1.21;1.11;;;;;;;19.46;59.92;100144.20;;;;-65
2020/10/29 02:23:07;;;;;;;1.31;1.21;;;;;;;19.46;59.94;100141.67;;;;-68
2020/10/29 02:26:07;;;;;;;1.26;1.16;;;;;;;19.45;59.91;100138.84;;;;-66
2020/10/29 02:29:07;;;;;;;1.39;1.20;;;;;;;19.45;59.96;100136.16;;;;-65
2020/10/29 02:32:07;;;;;;;1.27;1.17;;;;;;;19.46;59.89;100136.81;;;;-65
2020/10/29 02:35:07;;;;;;;1.29;1.19;;;;;;;19.44;59.93;100130.70;;;;-65
2020/10/29 02:38:07;;;;;;;1.19;1.09;;;;;;;19.44;59.99;100133.47;;;;-65
2020/10/29 02:41:07;;;;;;;1.22;1.12;;;;;;;19.44;59.92;100131.61;;;;-65
2020/10/29 02:44:07;;;;;;;1.39;1.19;;;;;;;19.44;59.93;100132.09;;;;-64
2020/10/29 02:47:08;;;;;;;1.08;1.08;;;;;;;19.44;59.92;100134.61;;;;-67
2020/10/29 02:50:07;;;;;;;1.59;1.20;;;;;;;19.42;60.00;100134.47;;;;-67
2020/10/29 02:53:07;;;;;;;1.31;1.21;;;;;;;19.43;60.01;100138.44;;;;-60
2020/10/29 02:56:07;;;;;;;1.20;1.10;;;;;;;19.43;59.93;100142.34;;;;-61
2020/10/29 02:59:07;;;;;;;1.24;1.15;;;;;;;19.42;60.00;100144.54;;;;-61
2020/10/29 03:02:07;;;;;;;1.22;1.10;;;;;;;19.43;59.91;100154.38;;;;-61
2020/10/29 03:05:07;;;;;;;1.13;1.03;;;;;;;19.42;59.92;100161.01;;;;-59
2020/10/29 03:08:07;;;;;;;1.30;1.20;;;;;;;19.42;59.92;100166.16;;;;-60
2020/10/29 03:11:07;;;;;;;1.19;1.09;;;;;;;19.41;59.97;100174.03;;;;-61
2020/10/29 03:14:07;;;;;;;1.20;1.10;;;;;;;19.41;59.96;100172.08;;;;-58
2020/10/29 03:17:07;;;;;;;0.99;0.99;;;;;;;19.39;60.05;100176.94;;;;-60
2020/10/29 03:20:07;;;;;;;1.20;1.10;;;;;;;19.40;60.03;100180.43;;;;-59
2020/10/29 03:23:07;;;;;;;1.11;1.10;;;;;;;19.39;59.97;100179.54;;;;-59
2020/10/29 03:26:07;;;;;;;1.19;1.10;;;;;;;19.39;60.03;100184.98;;;;-59
2020/10/29 03:29:07;;;;;;;1.20;1.10;;;;;;;19.39;59.99;100184.66;;;;-59
2020/10/29 03:32:07;;;;;;;1.18;1.09;;;;;;;19.40;60.02;100188.72;;;;-59
2020/10/29 03:35:07;;;;;;;1.59;1.19;;;;;;;19.39;59.97;100190.77;;;;-68
2020/10/29 03:38:07;;;;;;;1.81;1.10;;;;;;;19.38;60.03;100194.16;;;;-65
2020/10/29 03:41:07;;;;;;;1.23;1.13;;;;;;;19.39;60.02;100194.09;;;;-68
2020/10/29 03:44:07;;;;;;;1.00;1.00;;;;;;;19.39;59.99;100196.94;;;;-65
2020/10/29 03:47:07;;;;;;;1.20;1.10;;;;;;;19.38;60.03;100195.62;;;;-66
2020/10/29 03:50:07;;;;;;;1.15;1.05;;;;;;;19.38;59.95;100197.98;;;;-60
2020/10/29 03:53:07;;;;;;;1.11;1.07;;;;;;;19.37;60.01;100200.34;;;;-61
2020/10/29 03:56:07;;;;;;;1.27;1.17;;;;;;;19.37;59.99;100201.56;;;;-59
2020/10/29 03:59:07;;;;;;;1.20;1.09;;;;;;;19.37;59.97;100200.92;;;;-64
2020/10/29 04:02:07;;;;;;;1.00;1.00;;;;;;;19.36;60.05;100201.79;;;;-65
2020/10/29 04:05:07;;;;;;;1.14;1.10;;;;;;;19.35;60.03;100201.64;;;;-64
2020/10/29 04:08:07;;;;;;;1.21;1.10;;;;;;;19.35;60.07;100202.61;;;;-64
2020/10/29 04:11:07;;;;;;;1.20;1.10;;;;;;;19.35;60.02;100203.10;;;;-66
2020/10/29 04:14:07;;;;;;;1.23;1.13;;;;;;;19.34;60.00;100204.24;;;;-64
2020/10/29 04:17:07;;;;;;;1.21;1.11;;;;;;;19.34;60.09;100201.55;;;;-65
2020/10/29 04:20:07;;;;;;;1.51;1.20;;;;;;;19.34;59.99;100201.22;;;;-64
2020/10/29 04:23:07;;;;;;;1.21;1.11;;;;;;;19.34;60.07;100203.73;;;;-65
2020/10/29 04:26:07;;;;;;;1.13;1.00;;;;;;;19.33;60.00;100213.81;;;;-66
2020/10/29 04:29:07;;;;;;;1.01;1.01;;;;;;;19.33;60.01;100219.99;;;;-65
2020/10/29 04:32:07;;;;;;;1.15;1.05;;;;;;;19.33;60.05;100228.20;;;;-65
2020/10/29 04:35:07;;;;;;;1.30;1.20;;;;;;;19.33;60.09;100241.53;;;;-60
2020/10/29 04:38:07;;;;;;;1.20;1.10;;;;;;;19.32;60.00;100238.69;;;;-59
2020/10/29 04:41:07;;;;;;;1.12;1.02;;;;;;;19.32;60.02;100235.41;;;;-65
2020/10/29 04:44:07;;;;;;;1.05;1.00;;;;;;;19.31;60.13;100265.08;;;;-65
2020/10/29 04:47:07;;;;;;;1.00;1.00;;;;;;;19.30;60.02;100256.72;;;;-65
2020/10/29 04:50:07;;;;;;;1.36;1.10;;;;;;;19.30;59.99;100264.66;;;;-65
2020/10/29 04:53:07;;;;;;;1.09;1.05;;;;;;;19.31;60.07;100266.14;;;;-65
2020/10/29 04:56:07;;;;;;;1.28;1.12;;;;;;;19.29;60.03;100273.84;;;;-64
2020/10/29 04:59:07;;;;;;;1.30;1.20;;;;;;;19.29;60.01;100277.34;;;;-66
2020/10/29 05:02:07;;;;;;;1.20;1.10;;;;;;;19.29;60.07;100278.80;;;;-65
2020/10/29 05:05:07;;;;;;;1.20;1.10;;;;;;;19.29;60.10;100275.06;;;;-65
2020/10/29 05:08:07;;;;;;;1.27;1.13;;;;;;;19.28;60.10;100283.77;;;;-64
2020/10/29 05:11:07;;;;;;;1.11;1.01;;;;;;;19.28;60.06;100293.19;;;;-66
2020/10/29 05:14:07;;;;;;;1.03;1.03;;;;;;;19.28;60.10;100297.98;;;;-64
2020/10/29 05:17:07;;;;;;;1.01;1.01;;;;;;;19.27;60.11;100301.05;;;;-64
2020/10/29 05:20:07;;;;;;;1.00;1.00;;;;;;;19.27;60.08;100311.45;;;;-65
2020/10/29 05:23:07;;;;;;;1.20;1.10;;;;;;;19.27;60.08;100312.59;;;;-65
2020/10/29 05:26:07;;;;;;;1.00;1.00;;;;;;;19.26;60.08;100306.83;;;;-64
2020/10/29 05:29:07;;;;;;;1.33;1.23;;;;;;;19.26;59.99;100302.04;;;;-60
2020/10/29 05:32:07;;;;;;;1.01;1.01;;;;;;;19.25;60.10;100313.47;;;;-60
2020/10/29 05:35:07;;;;;;;1.17;1.09;;;;;;;19.26;60.04;100323.73;;;;-59
2020/10/29 05:38:07;;;;;;;1.20;1.10;;;;;;;19.26;60.08;100324.59;;;;-65
2020/10/29 05:41:07;;;;;;;0.94;0.94;;;;;;;19.25;60.09;100323.06;;;;-66
2020/10/29 05:44:07;;;;;;;1.05;0.95;;;;;;;19.25;60.09;100337.19;;;;-64
2020/10/29 05:47:07;;;;;;;1.13;1.10;;;;;;;19.25;60.02;100340.77;;;;-64
2020/10/29 05:50:07;;;;;;;1.25;1.14;;;;;;;19.25;59.97;100345.08;;;;-65
2020/10/29 05:53:07;;;;;;;1.18;1.10;;;;;;;19.25;59.97;100348.09;;;;-64
2020/10/29 05:56:07;;;;;;;1.19;1.09;;;;;;;19.25;60.08;100346.63;;;;-65
2020/10/29 05:59:07;;;;;;;1.20;1.11;;;;;;;19.23;60.08;100357.98;;;;-64
2020/10/29 06:02:07;;;;;;;1.05;0.94;;;;;;;19.23;60.06;100353.11;;;;-65
2020/10/29 06:05:07;;;;;;;1.05;1.01;;;;;;;19.23;60.05;100353.59;;;;-65
2020/10/29 06:08:07;;;;;;;1.08;1.07;;;;;;;19.23;60.01;100344.58;;;;-66
2020/10/29 06:11:07;;;;;;;1.00;1.00;;;;;;;19.23;60.12;100359.84;;;;-64
2020/10/29 06:14:07;;;;;;;1.07;1.00;;;;;;;19.23;60.01;100374.31;;;;-60
2020/10/29 06:17:07;;;;;;;1.09;1.09;;;;;;;19.23;60.06;100377.31;;;;-64
2020/10/29 06:20:07;;;;;;;1.28;1.00;;;;;;;19.25;60.03;100391.06;;;;-67
2020/10/29 06:23:07;;;;;;;1.15;1.07;;;;;;;19.26;60.09;100394.25;;;;-65
2020/10/29 06:26:07;;;;;;;1.20;1.10;;;;;;;19.26;60.00;100399.45;;;;-67
2020/10/29 06:29:07;;;;;;;1.00;1.00;;;;;;;19.28;60.02;100406.37;;;;-64
2020/10/29 06:32:07;;;;;;;0.91;0.91;;;;;;;19.30;59.92;100417.73;;;;-64
2020/10/29 06:35:07;;;;;;;1.00;1.00;;;;;;;19.31;59.94;100433.11;;;;-61
2020/10/29 06:38:07;;;;;;;1.13;1.05;;;;;;;19.33;60.00;100444.34;;;;-60
2020/10/29 06:41:07;;;;;;;0.91;0.91;;;;;;;19.34;60.00;100445.62;;;;-60
2020/10/29 06:44:07;;;;;;;0.97;0.97;;;;;;;19.35;59.91;100445.65;;;;-66
2020/10/29 06:47:07;;;;;;;0.99;0.99;;;;;;;19.36;59.97;100452.33;;;;-60
2020/10/29 06:50:07;;;;;;;1.00;1.00;;;;;;;19.37;59.99;100460.29;;;;-65
2020/10/29 06:53:07;;;;;;;0.93;0.93;;;;;;;19.38;59.87;100472.34;;;;-67
2020/10/29 06:56:07;;;;;;;0.86;0.86;;;;;;;19.39;59.98;100477.37;;;;-60
2020/10/29 06:59:07;;;;;;;1.03;0.98;;;;;;;19.40;59.97;100477.94;;;;-60
2020/10/29 07:02:07;;;;;;;1.02;1.02;;;;;;;19.42;59.88;100491.93;;;;-59
2020/10/29 07:05:07;;;;;;;0.91;0.91;;;;;;;19.42;59.88;100501.59;;;;-59
2020/10/29 07:08:09;;;;;;;1.07;1.03;;;;;;;19.42;59.84;100511.54;;;;-64
2020/10/29 07:11:07;;;;;;;0.95;0.93;;;;;;;19.43;59.84;100532.34;;;;-65
2020/10/29 07:14:08;;;;;;;1.10;1.10;;;;;;;19.44;59.98;100540.95;;;;-60
2020/10/29 07:17:07;;;;;;;0.99;0.97;;;;;;;19.44;59.87;100550.41;;;;-59
2020/10/29 07:20:07;;;;;;;1.11;1.08;;;;;;;19.45;59.94;100556.01;;;;-59
2020/10/29 07:23:07;;;;;;;0.94;0.94;;;;;;;19.45;59.92;100562.43;;;;-64
2020/10/29 07:26:07;;;;;;;0.95;0.95;;;;;;;19.45;59.92;100567.80;;;;-64
2020/10/29 07:29:07;;;;;;;1.04;0.99;;;;;;;19.45;59.90;100572.02;;;;-63
2020/10/29 07:32:07;;;;;;;1.13;1.03;;;;;;;19.45;59.92;100569.02;;;;-67
2020/10/29 07:35:07;;;;;;;0.92;0.92;;;;;;;19.45;59.94;100567.95;;;;-66
2020/10/29 07:38:07;;;;;;;0.99;0.99;;;;;;;19.45;59.94;100573.89;;;;-67
2020/10/29 07:41:07;;;;;;;0.99;0.94;;;;;;;19.45;59.92;100578.44;;;;-65
2020/10/29 07:44:07;;;;;;;1.02;0.99;;;;;;;19.44;59.86;100591.04;;;;-65
2020/10/29 07:47:07;;;;;;;0.87;0.87;;;;;;;19.45;59.93;100591.84;;;;-66
2020/10/29 07:50:07;;;;;;;0.90;0.90;;;;;;;19.45;59.86;100591.60;;;;-65
2020/10/29 07:53:07;;;;;;;1.02;0.97;;;;;;;19.45;59.84;100594.45;;;;-61
2020/10/29 07:56:07;;;;;;;0.89;0.89;;;;;;;19.45;59.96;100589.98;;;;-65
2020/10/29 07:59:07;;;;;;;0.89;0.89;;;;;;;19.45;59.85;100605.59;;;;-59
2020/10/29 08:02:07;;;;;;;0.89;0.89;;;;;;;19.45;59.93;100611.36;;;;-65
2020/10/29 08:05:07;;;;;;;0.96;0.96;;;;;;;19.45;59.91;100616.31;;;;-65
2020/10/29 08:08:07;;;;;;;1.01;1.01;;;;;;;19.45;59.96;100621.03;;;;-66
2020/10/29 08:11:07;;;;;;;1.01;1.01;;;;;;;19.44;59.95;100622.22;;;;-63
2020/10/29 08:14:09;;;;;;;0.83;0.83;;;;;;;19.44;59.90;100633.47;;;;-64
2020/10/29 08:17:07;;;;;;;0.93;0.93;;;;;;;19.44;59.89;100638.64;;;;-65
2020/10/29 08:20:07;;;;;;;0.83;0.83;;;;;;;19.44;59.89;100644.09;;;;-65
2020/10/29 08:23:07;;;;;;;0.93;0.93;;;;;;;19.44;59.91;100647.91;;;;-66
2020/10/29 08:26:07;;;;;;;0.88;0.88;;;;;;;19.43;59.92;100657.98;;;;-60
2020/10/29 08:29:07;;;;;;;1.01;1.01;;;;;;;19.44;59.89;100660.34;;;;-61
2020/10/29 08:32:07;;;;;;;0.97;0.97;;;;;;;19.44;59.91;100660.66;;;;-60
2020/10/29 08:35:07;;;;;;;0.93;0.93;;;;;;;19.44;59.89;100668.14;;;;-60
2020/10/29 08:38:07;;;;;;;0.98;0.97;;;;;;;19.44;59.92;100680.74;;;;-60
2020/10/29 08:41:07;;;;;;;1.07;1.04;;;;;;;19.43;59.91;100687.33;;;;-65
2020/10/29 08:44:12;;;;;;;0.84;0.84;;;;;;;19.43;59.91;100686.36;;;;-65
2020/10/29 08:47:07;;;;;;;0.87;0.87;;;;;;;19.43;59.88;100693.59;;;;-65
2020/10/29 08:50:07;;;;;;;0.91;0.91;;;;;;;19.43;59.87;100696.52;;;;-67
2020/10/29 08:53:07;;;;;;;0.93;0.93;;;;;;;19.42;59.85;100696.73;;;;-58
2020/10/29 08:56:07;;;;;;;1.01;1.01;;;;;;;19.42;59.92;100699.98;;;;-58
2020/10/29 08:59:07;;;;;;;0.90;0.90;;;;;;;19.42;59.87;100702.75;;;;-59
2020/10/29 09:02:07;;;;;;;1.05;1.03;;;;;;;19.41;59.85;100705.84;;;;-61
2020/10/29 09:05:07;;;;;;;1.08;0.98;;;;;;;19.41;59.88;100709.33;;;;-60
2020/10/29 09:08:07;;;;;;;6.29;1.29;;;;;;;19.35;59.55;100714.95;;;;-57
2020/10/29 09:11:07;;;;;;;6.39;1.40;;;;;;;19.29;59.35;100712.69;;;;-52
2020/10/29 09:14:07;;;;;;;3.23;1.29;;;;;;;19.23;59.15;100716.36;;;;-57
2020/10/29 09:17:07;;;;;;;3.72;1.59;;;;;;;19.19;59.24;100723.95;;;;-51
2020/10/29 09:20:07;;;;;;;2.83;1.40;;;;;;;19.19;59.38;100722.08;;;;-55
2020/10/29 09:23:07;;;;;;;4.59;1.49;;;;;;;19.23;59.25;100720.42;;;;-51
2020/10/29 09:26:07;;;;;;;4.05;1.32;;;;;;;19.27;59.47;100716.08;;;;-50
2020/10/29 09:29:08;;;;;;;5.79;1.37;;;;;;;19.29;59.38;100725.37;;;;-55
2020/10/29 09:32:07;;;;;;;2.39;1.40;;;;;;;19.33;59.61;100735.81;;;;-58
2020/10/29 09:35:07;;;;;;;1.77;1.25;;;;;;;19.34;59.70;100739.41;;;;-60
2020/10/29 09:38:07;;;;;;;1.61;1.31;;;;;;;19.36;59.78;100742.53;;;;-60
2020/10/29 09:41:07;;;;;;;2.61;1.19;;;;;;;19.36;59.80;100745.62;;;;-51
2020/10/29 09:44:07;;;;;;;6.07;1.42;;;;;;;19.41;59.96;100745.91;;;;-61
2020/10/29 09:47:07;;;;;;;3.09;1.39;;;;;;;19.42;59.99;100759.15;;;;-63
2020/10/29 09:50:07;;;;;;;4.51;1.33;;;;;;;19.44;60.01;100759.09;;;;-57
2020/10/29 09:53:07;;;;;;;5.04;1.32;;;;;;;19.47;60.01;100763.61;;;;-52
2020/10/29 09:56:07;;;;;;;3.34;1.27;;;;;;;19.49;59.96;100770.55;;;;-53
2020/10/29 09:59:07;;;;;;;2.67;1.28;;;;;;;19.52;59.98;100766.99;;;;-48
2020/10/29 10:02:17;;;;;;;2.55;1.14;;;;;;;19.51;59.93;100772.59;;;;-64
2020/10/29 10:05:07;;;;;;;2.07;1.22;;;;;;;19.55;59.84;100777.85;;;;-56
2020/10/29 10:08:07;;;;;;;2.11;1.26;;;;;;;19.56;59.85;100783.22;;;;-63
2020/10/29 10:11:07;;;;;;;2.79;1.25;;;;;;;19.57;59.78;100791.29;;;;-51
2020/10/29 10:14:07;;;;;;;4.87;1.44;;;;;;;19.58;59.88;100792.91;;;;-56
2020/10/29 10:17:07;;;;;;;2.13;1.25;;;;;;;19.60;59.85;100795.12;;;;-59
2020/10/29 10:20:07;;;;;;;4.89;1.34;;;;;;;19.61;59.86;100791.82;;;;-58
2020/10/29 10:23:07;;;;;;;2.89;1.30;;;;;;;19.63;59.85;100790.44;;;;-49
2020/10/29 10:26:07;;;;;;;2.26;1.25;;;;;;;19.64;59.79;100794.60;;;;-54
2020/10/29 10:29:07;;;;;;;2.47;1.27;;;;;;;19.65;59.86;100793.90;;;;-55
2020/10/29 10:32:07;;;;;;;3.57;1.42;;;;;;;19.66;59.81;100794.14;;;;-53
2020/10/29 10:35:07;;;;;;;3.23;1.44;;;;;;;19.68;59.77;100805.95;;;;-45
2020/10/29 10:41:07;;;;;;;1.97;1.35;;;;;;;19.69;59.73;100801.72;;;;-46
2020/10/29 10:44:07;;;;;;;1.71;1.29;;;;;;;19.69;59.49;100803.19;;;;-64
2020/10/29 10:47:07;;;;;;;1.88;1.37;;;;;;;19.70;59.31;100789.06;;;;-54
2020/10/29 10:50:07;;;;;;;2.34;1.30;;;;;;;19.70;59.18;100795.65;;;;-51
2020/10/29 10:53:07;;;;;;;1.73;1.19;;;;;;;19.70;59.22;100796.09;;;;-58
2020/10/29 10:56:07;;;;;;;2.13;1.31;;;;;;;19.71;59.31;100798.84;;;;-66
2020/10/29 10:59:07;;;;;;;6.85;1.55;;;;;;;19.71;59.22;100798.68;;;;-56
2020/10/29 11:02:07;;;;;;;5.37;1.40;;;;;;;19.71;59.44;100799.42;;;;-56
2020/10/29 11:05:07;;;;;;;4.33;1.37;;;;;;;19.70;59.41;100790.45;;;;-56
2020/10/29 11:08:07;;;;;;;3.07;1.30;;;;;;;19.69;59.46;100788.82;;;;-55
2020/10/29 11:11:07;;;;;;;3.65;1.30;;;;;;;19.71;59.45;100790.15;;;;-55
2020/10/29 11:14:07;;;;;;;2.34;1.34;;;;;;;19.70;59.40;100788.91;;;;-56
2020/10/29 11:17:07;;;;;;;2.13;1.27;;;;;;;19.69;59.43;100790.02;;;;-55
2020/10/29 11:20:07;;;;;;;2.16;1.35;;;;;;;19.68;59.46;100784.81;;;;-55
2020/10/29 11:23:07;;;;;;;3.96;1.33;;;;;;;19.68;59.42;100786.84;;;;-56
2020/10/29 11:26:07;;;;;;;1.85;1.23;;;;;;;19.68;59.45;100783.35;;;;-55
2020/10/29 11:29:07;;;;;;;5.33;1.41;;;;;;;19.66;59.43;100784.14;;;;-55
2020/10/29 11:32:07;;;;;;;2.34;1.31;;;;;;;19.66;59.43;100787.23;;;;-55
2020/10/29 11:35:07;;;;;;;2.81;1.30;;;;;;;19.65;59.50;100789.67;;;;-55
2020/10/29 11:38:07;;;;;;;4.20;1.26;;;;;;;19.65;59.44;100793.41;;;;-56
2020/10/29 11:41:07;;;;;;;2.19;1.33;;;;;;;19.64;59.44;100795.34;;;;-56
2020/10/29 11:44:07;;;;;;;1.76;1.22;;;;;;;19.62;59.39;100796.20;;;;-56
2020/10/29 11:47:07;;;;;;;2.55;1.49;;;;;;;19.62;59.47;100795.39;;;;-54
2020/10/29 11:50:07;;;;;;;3.09;1.33;;;;;;;19.62;59.46;100795.31;;;;-53
2020/10/29 11:53:10;;;;;;;1.89;1.39;;;;;;;19.60;59.44;100794.07;;;;-56
2020/10/29 11:56:07;;;;;;;1.77;1.20;;;;;;;19.60;59.45;100793.75;;;;-59
2020/10/29 11:59:07;;;;;;;2.18;1.30;;;;;;;19.60;59.47;100792.28;;;;-53
2020/10/29 12:02:07;;;;;;;2.44;1.13;;;;;;;19.59;59.44;100798.06;;;;-53
2020/10/29 12:05:07;;;;;;;1.58;1.19;;;;;;;19.59;59.41;100791.39;;;;-56
2020/10/29 12:08:07;;;;;;;2.00;1.09;;;;;;;19.58;59.52;100791.53;;;;-53
2020/10/29 12:11:07;;;;;;;1.60;1.13;;;;;;;19.59;59.44;100794.70;;;;-55
2020/10/29 12:14:07;;;;;;;1.40;1.10;;;;;;;19.58;59.48;100792.91;;;;-55
2020/10/29 12:17:07;;;;;;;2.21;1.34;;;;;;;19.58;59.43;100789.82;;;;-55
2020/10/29 12:20:07;;;;;;;1.85;1.16;;;;;;;19.56;59.50;100783.20;;;;-55
2020/10/29 12:23:27;;;;;;;3.19;1.17;;;;;;;19.55;59.56;100783.38;;;;-63
2020/10/29 12:29:39;;;;;;;4.41;1.40;;;;;;;19.59;59.69;100777.81;;;;-56
2020/10/29 12:32:26;;;;;;;6.94;1.37;;;;;;;19.59;59.71;100773.99;;;;-52
2020/10/29 12:35:27;;;;;;;5.14;1.56;;;;;;;19.60;59.72;100779.03;;;;-53
2020/10/29 12:38:10;;;;;;;6.88;1.42;;;;;;;19.62;59.74;100774.83;;;;-56
2020/10/29 12:41:07;;;;;;;3.81;1.31;;;;;;;19.63;59.79;100771.73;;;;-56
2020/10/29 12:44:07;;;;;;;3.12;1.22;;;;;;;19.64;59.73;100767.94;;;;-58
2020/10/29 12:47:07;;;;;;;4.08;1.27;;;;;;;19.66;59.73;100767.95;;;;-58
2020/10/29 12:50:07;;;;;;;3.32;1.25;;;;;;;19.68;59.73;100769.53;;;;-54
2020/10/29 12:53:07;;;;;;;4.01;1.24;;;;;;;19.70;59.83;100773.61;;;;-56
2020/10/29 12:56:08;;;;;;;2.10;1.31;;;;;;;19.73;59.86;100772.20;;;;-57
2020/10/29 12:59:07;;;;;;;2.51;1.41;;;;;;;19.76;59.92;100772.41;;;;-56
2020/10/29 13:02:07;;;;;;;3.18;1.31;;;;;;;19.79;59.99;100770.95;;;;-58
2020/10/29 13:05:07;;;;;;;3.45;1.23;;;;;;;19.83;59.98;100770.03;;;;-60
2020/10/29 13:08:07;;;;;;;1.66;1.20;;;;;;;19.87;60.17;100771.05;;;;-57
2020/10/29 13:11:07;;;;;;;4.74;1.31;;;;;;;19.91;60.07;100777.75;;;;-58
2020/10/29 13:14:09;;;;;;;1.89;1.20;;;;;;;19.95;60.17;100774.30;;;;-53
2020/10/29 13:17:07;;;;;;;2.85;1.23;;;;;;;19.98;60.18;100777.02;;;;-47
2020/10/29 13:20:07;;;;;;;2.61;1.08;;;;;;;20.03;60.29;100778.44;;;;-47
2020/10/29 13:23:07;;;;;;;1.99;1.10;;;;;;;20.05;60.02;100773.25;;;;-53
2020/10/29 13:26:07;;;;;;;1.45;1.21;;;;;;;20.08;60.22;100779.45;;;;-50
2020/10/29 13:29:07;;;;;;;3.09;1.23;;;;;;;20.13;60.24;100780.87;;;;-56
2020/10/29 13:32:07;;;;;;;2.17;1.21;;;;;;;20.16;59.96;100780.98;;;;-51
2020/10/29 13:35:07;;;;;;;4.07;1.29;;;;;;;20.19;60.09;100781.73;;;;-47
2020/10/29 13:38:07;;;;;;;1.77;1.30;;;;;;;20.22;60.19;100789.18;;;;-51
2020/10/29 13:41:07;;;;;;;2.70;1.35;;;;;;;20.25;60.05;100779.91;;;;-58
2020/10/29 13:44:07;;;;;;;2.83;1.29;;;;;;;20.25;59.73;100778.37;;;;-58
2020/10/29 13:47:07;;;;;;;2.24;1.30;;;;;;;20.26;59.82;100773.59;;;;-54
2020/10/29 13:50:07;;;;;;;2.74;1.28;;;;;;;20.27;59.69;100777.24;;;;-58
2020/10/29 13:53:07;;;;;;;1.70;1.27;;;;;;;20.28;59.64;100776.05;;;;-58
2020/10/29 13:56:07;;;;;;;2.29;1.28;;;;;;;20.28;59.56;100771.24;;;;-58
2020/10/29 13:59:07;;;;;;;1.40;1.20;;;;;;;20.30;59.65;100773.22;;;;-58
2020/10/29 14:02:07;;;;;;;3.31;1.39;;;;;;;20.31;59.63;100772.40;;;;-64
2020/10/29 14:05:07;;;;;;;1.91;1.35;;;;;;;20.32;59.61;100773.48;;;;-63
2020/10/29 14:08:07;;;;;;;1.99;1.32;;;;;;;20.33;59.52;100775.67;;;;-64
2020/10/29 14:11:07;;;;;;;1.32;1.20;;;;;;;20.34;59.46;100779.60;;;;-65
2020/10/29 14:14:07;;;;;;;1.33;1.23;;;;;;;20.34;59.45;100778.78;;;;-64
2020/10/29 14:17:07;;;;;;;1.77;1.27;;;;;;;20.36;59.41;100780.97;;;;-62
2020/10/29 14:20:07;;;;;;;2.30;1.44;;;;;;;20.37;59.39;100781.23;;;;-64
2020/10/29 14:23:07;;;;;;;1.77;1.30;;;;;;;20.38;59.39;100787.53;;;;-62
2020/10/29 14:26:07;;;;;;;1.44;1.13;;;;;;;20.39;59.32;100791.50;;;;-65
2020/10/29 14:29:07;;;;;;;1.52;1.30;;;;;;;20.41;59.31;100794.62;;;;-63
2020/10/29 14:32:07;;;;;;;8.37;1.52;;;;;;;20.43;59.40;100794.55;;;;-54
2020/10/29 14:35:07;;;;;;;2.55;1.27;;;;;;;20.45;59.50;100803.20;;;;-60
2020/10/29 14:38:07;;;;;;;2.78;1.39;;;;;;;20.45;59.13;100803.04;;;;-61
2020/10/29 14:41:07;;;;;;;1.60;1.45;;;;;;;20.47;59.13;100809.73;;;;-61
2020/10/29 14:44:07;;;;;;;1.88;1.37;;;;;;;20.47;59.09;100814.45;;;;-61
2020/10/29 14:47:07;;;;;;;2.53;1.35;;;;;;;20.48;58.93;100814.88;;;;-60
2020/10/29 14:50:07;;;;;;;2.21;1.42;;;;;;;20.49;59.00;100815.12;;;;-62
2020/10/29 14:53:07;;;;;;;2.01;1.39;;;;;;;20.51;59.00;100818.56;;;;-61
2020/10/29 14:56:07;;;;;;;3.91;1.67;;;;;;;20.52;58.90;100823.27;;;;-58
2020/10/29 14:59:07;;;;;;;1.87;1.57;;;;;;;20.52;59.14;100831.03;;;;-59
2020/10/29 15:02:07;;;;;;;1.89;1.43;;;;;;;20.53;58.82;100831.11;;;;-62
2020/10/29 15:05:07;;;;;;;2.56;1.45;;;;;;;20.54;59.10;100834.63;;;;-54
2020/10/29 15:08:07;;;;;;;2.28;1.50;;;;;;;20.55;59.09;100845.21;;;;-51
2020/10/29 15:11:07;;;;;;;2.67;1.60;;;;;;;20.57;59.06;100846.38;;;;-57
2020/10/29 15:14:07;;;;;;;2.25;1.65;;;;;;;20.57;58.93;100841.00;;;;-50
2020/10/29 15:17:07;;;;;;;3.00;1.75;;;;;;;20.59;58.94;100846.83;;;;-52
2020/10/29 15:20:07;;;;;;;1.73;1.55;;;;;;;20.59;58.88;100846.75;;;;-59
2020/10/29 15:23:20;;;;;;;2.15;1.46;;;;;;;20.60;58.81;100845.77;;;;-49
2020/10/29 15:26:07;;;;;;;2.80;1.49;;;;;;;20.60;58.46;100850.08;;;;-59
2020/10/29 15:29:07;;;;;;;2.57;1.57;;;;;;;20.63;58.66;100853.27;;;;-59
2020/10/29 15:32:07;;;;;;;4.85;1.61;;;;;;;20.64;58.54;100851.33;;;;-67
2020/10/29 15:35:07;;;;;;;3.91;1.62;;;;;;;20.65;58.54;100852.82;;;;-68
2020/10/29 15:38:07;;;;;;;3.25;1.62;;;;;;;20.66;58.60;100846.05;;;;-68
2020/10/29 15:41:07;;;;;;;2.40;1.64;;;;;;;20.66;58.64;100851.59;;;;-67
2020/10/29 15:44:07;;;;;;;2.37;1.40;;;;;;;20.66;58.54;100858.76;;;;-68
2020/10/29 15:47:07;;;;;;;2.97;1.56;;;;;;;20.66;58.61;100856.72;;;;-68
2020/10/29 15:50:07;;;;;;;1.86;1.50;;;;;;;20.67;58.60;100866.77;;;;-60
2020/10/29 15:53:07;;;;;;;4.80;1.71;;;;;;;20.64;58.53;100865.91;;;;-65
2020/10/29 15:56:07;;;;;;;2.97;1.77;;;;;;;20.62;58.32;100869.31;;;;-65
2020/10/29 15:59:07;;;;;;;2.98;1.81;;;;;;;20.65;58.24;100876.44;;;;-65
2020/10/29 16:02:07;;;;;;;5.53;2.25;;;;;;;20.68;58.33;100882.48;;;;-54
2020/10/29 16:05:07;;;;;;;5.57;2.25;;;;;;;20.66;58.48;100885.55;;;;-56
2020/10/29 16:08:07;;;;;;;9.59;2.73;;;;;;;20.66;58.49;100882.30;;;;-60
2020/10/29 16:11:07;;;;;;;5.39;2.78;;;;;;;20.66;58.53;100890.77;;;;-58
2020/10/29 16:14:07;;;;;;;7.13;2.67;;;;;;;20.66;58.62;100890.77;;;;-58
2020/10/29 16:17:07;;;;;;;5.11;2.99;;;;;;;20.67;58.72;100893.07;;;;-58
2020/10/29 16:20:07;;;;;;;5.18;2.89;;;;;;;20.66;58.56;100892.64;;;;-53
2020/10/29 16:23:07;;;;;;;5.03;2.97;;;;;;;20.68;58.60;100896.81;;;;-54
2020/10/29 16:26:07;;;;;;;5.87;2.91;;;;;;;20.69;58.65;100902.13;;;;-58
2020/10/29 16:29:07;;;;;;;5.83;3.10;;;;;;;20.69;58.69;100899.03;;;;-54
2020/10/29 16:32:07;;;;;;;6.75;3.34;;;;;;;20.70;58.51;100901.95;;;;-53
2020/10/29 16:35:07;;;;;;;4.07;3.25;;;;;;;20.73;58.78;100905.31;;;;-52
2020/10/29 16:38:07;;;;;;;9.49;3.53;;;;;;;20.73;58.76;100903.03;;;;-57
2020/10/29 16:41:07;;;;;;;3.93;3.07;;;;;;;20.74;58.80;100902.48;;;;-62
2020/10/29 16:44:07;;;;;;;7.95;3.12;;;;;;;20.79;58.94;100907.56;;;;-51
2020/10/29 16:47:07;;;;;;;5.76;3.15;;;;;;;20.83;59.49;100910.94;;;;-50
2020/10/29 16:50:07;;;;;;;5.23;2.93;;;;;;;20.84;59.63;100909.57;;;;-50